Time;durP1;ratioP1;P1;durP2;ratioP2;P2;SDS_P1;SDS_P2;PMS_P1;PMS_P2;Temp;Humidity;BMP_temperature;BMP_pressure;BME280_temperature;BME280_humidity;BME280_pressure;Samples;Min_cycle;Max_cycle;Signal;HPM_P1;HPM_P2
2023/07/31 07:59:41;;;;;;;;;;;33.40;99.90;;;;;;4892782;29;20383;-92
2023/07/31 08:02:10;;;;;;;31.13;29.13;;;34.00;99.90;;;;;;4908888;29;19912;-92
2023/07/31 08:04:36;;;;;;;32.83;30.38;;;33.80;99.90;;;;;;4884446;29;20029;-92
2023/07/31 08:07:03;;;;;;;31.90;29.55;;;33.60;99.90;;;;;;4883217;29;20037;-91
2023/07/31 08:09:30;;;;;;;31.67;29.60;;;33.40;99.90;;;;;;4901521;29;20071;-91
2023/07/31 08:12:01;;;;;;;32.35;30.15;;;33.50;99.90;;;;;;4886547;29;20085;-92
2023/07/31 08:14:28;;;;;;;32.28;30.23;;;33.70;99.90;;;;;;4904752;29;20048;-91
2023/07/31 08:16:55;;;;;;;31.75;29.65;;;33.80;99.90;;;;;;4882385;29;20123;-92
2023/07/31 08:19:21;;;;;;;31.55;29.45;;;33.00;99.90;;;;;;4887688;29;20379;-91
2023/07/31 08:21:48;;;;;;;31.42;29.08;;;33.20;99.90;;;;;;4952717;24;20061;-91
2023/07/31 08:24:14;;;;;;;31.00;28.73;;;33.20;99.90;;;;;;4910101;29;20078;-92
2023/07/31 08:26:42;;;;;;;31.48;29.45;;;33.30;99.90;;;;;;4891221;29;20049;-93
2023/07/31 08:29:08;;;;;;;31.50;28.95;;;33.50;99.90;;;;;;4889419;29;20021;-93
2023/07/31 08:31:35;;;;;;;30.88;28.67;;;33.50;99.90;;;;;;4905562;29;20029;-92
2023/07/31 08:34:02;;;;;;;31.10;29.08;;;33.00;99.90;;;;;;4904713;29;20033;-91
2023/07/31 08:36:28;;;;;;;31.90;29.42;;;33.50;99.90;;;;;;4905479;29;20025;-92
2023/07/31 08:38:55;;;;;;;30.25;28.05;;;33.40;99.90;;;;;;4891584;29;20483;-90
2023/07/31 08:41:21;;;;;;;28.95;26.95;;;33.40;99.90;;;;;;4889690;29;20025;-93
2023/07/31 08:43:49;;;;;;;30.38;28.20;;;33.50;99.90;;;;;;4875617;29;20025;-93
2023/07/31 08:46:16;;;;;;;30.80;28.67;;;32.70;99.90;;;;;;4895597;29;20040;-91
2023/07/31 08:48:44;;;;;;;30.88;28.73;;;33.00;99.90;;;;;;4875899;29;20076;-91
2023/07/31 08:51:11;;;;;;;29.88;27.95;;;33.20;99.90;;;;;;4890397;29;20447;-93
2023/07/31 08:53:37;;;;;;;30.00;28.10;;;32.90;99.90;;;;;;4888812;29;20181;-92
2023/07/31 08:56:05;;;;;;;31.55;29.38;;;32.90;99.90;;;;;;4881855;29;20033;-93
2023/07/31 08:58:38;;;;;;;31.10;28.73;;;33.20;99.90;;;;;;4889180;29;20065;-95
2023/07/31 09:01:07;;;;;;;31.05;28.80;;;33.40;99.90;;;;;;4855799;29;20036;-92
2023/07/31 09:03:35;;;;;;;30.50;28.60;;;33.20;99.90;;;;;;4878313;29;20029;-93
2023/07/31 09:06:04;;;;;;;30.05;28.15;;;33.20;99.90;;;;;;4904197;29;20025;-92
2023/07/31 09:08:34;;;;;;;30.92;28.90;;;33.30;99.90;;;;;;4876787;29;20037;-92
2023/07/31 09:11:05;;;;;;;31.95;29.67;;;33.80;99.90;;;;;;4880700;29;20088;-94
2023/07/31 09:13:32;;;;;;;32.58;30.17;;;33.80;99.90;;;;;;4903783;29;20328;-94
2023/07/31 09:15:59;;;;;;;32.22;29.75;;;34.30;99.90;;;;;;4884685;29;20025;-92
2023/07/31 09:18:26;;;;;;;33.00;30.60;;;33.70;99.90;;;;;;4905299;29;20064;-93
2023/07/31 09:21:05;;;;;;;34.25;31.60;;;33.50;99.90;;;;;;4903950;29;20116;-92
2023/07/31 09:23:49;;;;;;;32.63;30.33;;;33.60;99.90;;;;;;4904768;29;20071;-93
2023/07/31 09:26:36;;;;;;;32.90;30.52;;;33.70;99.90;;;;;;4905260;29;20068;-94
2023/07/31 09:29:08;;;;;;;32.20;30.30;;;33.90;99.90;;;;;;4884796;29;20025;-92
2023/07/31 09:31:43;;;;;;;32.95;30.83;;;33.50;99.90;;;;;;4900325;29;20037;-94
2023/07/31 09:34:11;;;;;;;32.45;30.55;;;34.00;99.90;;;;;;4875653;29;20052;-94
2023/07/31 09:36:46;;;;;;;32.80;30.58;;;33.80;99.90;;;;;;4903011;29;20052;-91
2023/07/31 09:39:15;;;;;;;32.63;30.52;;;33.40;99.90;;;;;;4897928;29;20048;-93
2023/07/31 09:41:46;;;;;;;32.00;29.80;;;33.10;99.90;;;;;;4903408;29;20025;-91
2023/07/31 09:44:12;;;;;;;32.55;30.17;;;32.70;99.90;;;;;;4903199;29;20439;-91
2023/07/31 09:46:39;;;;;;;31.73;29.73;;;32.50;99.90;;;;;;4903383;29;20033;-94
2023/07/31 09:49:09;;;;;;;31.88;29.88;;;32.40;99.90;;;;;;4893606;29;20051;-92
2023/07/31 09:51:38;;;;;;;31.90;29.90;;;32.40;99.90;;;;;;4873050;29;20047;-94
2023/07/31 09:54:14;;;;;;;32.30;30.40;;;32.60;99.90;;;;;;4903282;29;20041;-93
2023/07/31 09:56:45;;;;;;;32.65;30.38;;;32.70;99.90;;;;;;4894645;29;20116;-92
2023/07/31 09:59:17;;;;;;;31.85;29.90;;;32.60;99.90;;;;;;4889934;29;20033;-93
2023/07/31 10:01:46;;;;;;;33.00;30.65;;;32.80;99.90;;;;;;4903142;29;20058;-93
2023/07/31 10:04:13;;;;;;;32.28;30.25;;;33.20;99.90;;;;;;4887876;29;20390;-91
2023/07/31 10:06:43;;;;;;;32.97;30.60;;;33.40;99.90;;;;;;4896333;29;20017;-94
2023/07/31 10:09:15;;;;;;;31.92;29.92;;;32.70;99.90;;;;;;4907760;29;20116;-93
2023/07/31 10:11:50;;;;;;;32.60;30.63;;;32.50;99.90;;;;;;4892839;29;20112;-93
2023/07/31 10:14:21;;;;;;;32.67;30.58;;;32.40;99.90;;;;;;5017126;23;20104;-93
2023/07/31 10:16:57;;;;;;;33.13;30.77;;;32.40;99.90;;;;;;4910434;29;20028;-94
2023/07/31 10:19:24;;;;;;;33.20;30.67;;;32.70;99.90;;;;;;4908085;29;20591;-93
2023/07/31 10:21:51;;;;;;;32.42;30.27;;;32.90;99.90;;;;;;4886908;29;20056;-91
2023/07/31 10:24:18;;;;;;;33.22;31.23;;;33.00;99.90;;;;;;4912963;29;20031;-93
2023/07/31 10:26:47;;;;;;;32.80;30.80;;;32.80;99.90;;;;;;4912277;29;20079;-93
2023/07/31 10:29:15;;;;;;;32.22;30.33;;;32.70;99.90;;;;;;4911985;29;20035;-92
2023/07/31 10:31:42;;;;;;;33.60;31.30;;;32.80;99.90;;;;;;4895886;29;20062;-92
2023/07/31 10:34:09;;;;;;;33.53;31.42;;;33.20;99.90;;;;;;4890660;29;20044;-91
2023/07/31 10:36:36;;;;;;;33.38;31.42;;;33.60;99.90;;;;;;4905855;29;20486;-90
2023/07/31 10:39:04;;;;;;;33.08;30.83;;;33.40;99.90;;;;;;4882246;29;20029;-93
2023/07/31 10:41:31;;;;;;;33.13;30.95;;;33.50;99.90;;;;;;4890850;29;20048;-91
2023/07/31 10:44:00;;;;;;;33.40;31.30;;;33.30;99.90;;;;;;4889795;29;20029;-91
2023/07/31 10:49:20;;;;;;;33.38;31.27;;;33.40;99.90;;;;;;4957066;23;20044;-92
2023/07/31 10:51:50;;;;;;;32.78;30.77;;;33.30;99.90;;;;;;4909169;29;20119;-93
2023/07/31 10:54:22;;;;;;;33.25;31.13;;;32.90;99.90;;;;;;4876925;29;20108;-91
2023/07/31 10:56:52;;;;;;;33.22;31.25;;;32.90;99.90;;;;;;4902780;29;20040;-91
2023/07/31 10:59:20;;;;;;;32.72;30.63;;;32.90;99.90;;;;;;4871870;29;20036;-92
2023/07/31 11:01:57;;;;;;;32.08;30.17;;;33.10;99.90;;;;;;4890994;29;20064;-93
2023/07/31 11:04:25;;;;;;;32.58;30.67;;;33.20;99.90;;;;;;4901797;29;20029;-91
2023/07/31 11:07:01;;;;;;;32.95;30.75;;;33.00;99.90;;;;;;4876264;29;20032;-92
2023/07/31 11:09:34;;;;;;;32.10;30.20;;;33.00;99.90;;;;;;4904291;29;20443;-92
2023/07/31 11:12:01;;;;;;;32.30;30.30;;;32.90;99.90;;;;;;4855339;29;20062;-92
2023/07/31 11:14:28;;;;;;;33.50;31.23;;;32.90;99.90;;;;;;4904560;29;20173;-92
2023/07/31 11:16:54;;;;;;;33.28;31.27;;;32.80;99.90;;;;;;4888042;29;20060;-91
2023/07/31 11:19:25;;;;;;;32.53;30.63;;;32.60;99.90;;;;;;4879797;29;20094;-92
2023/07/31 11:21:56;;;;;;;33.70;31.50;;;32.80;99.90;;;;;;4902126;29;20168;-92
2023/07/31 11:24:29;;;;;;;33.83;31.52;;;32.70;99.90;;;;;;4902457;29;20029;-93
2023/07/31 11:26:55;;;;;;;33.17;30.65;;;32.70;99.90;;;;;;4902312;29;20127;-92
2023/07/31 11:29:29;;;;;;;33.22;31.25;;;32.80;99.90;;;;;;4904791;29;20033;-91
2023/07/31 11:31:55;;;;;;;33.35;31.15;;;33.00;99.90;;;;;;4887004;29;20452;-90
2023/07/31 11:34:22;;;;;;;33.45;31.45;;;33.00;99.90;;;;;;4902292;29;20076;-92
2023/07/31 11:36:55;;;;;;;34.13;31.73;;;32.80;99.90;;;;;;4901011;29;20033;-91
2023/07/31 11:39:40;;;;;;;33.30;30.95;;;32.90;99.90;;;;;;4882233;29;20498;-92
2023/07/31 11:42:06;;;;;;;34.03;31.92;;;33.00;99.90;;;;;;4878143;29;20470;-92
2023/07/31 11:59:08;;;;;;;34.85;32.75;;;33.20;99.90;;;;;;4966723;23;20057;-93
2023/07/31 12:01:35;;;;;;;35.33;33.08;;;33.40;99.90;;;;;;4890618;29;20503;-93
2023/07/31 12:04:05;;;;;;;34.50;32.10;;;33.40;99.90;;;;;;4892828;29;20048;-94
2023/07/31 12:06:36;;;;;;;34.47;32.47;;;32.90;99.90;;;;;;4880189;29;20056;-93
2023/07/31 12:09:06;;;;;;;34.10;31.98;;;32.80;99.90;;;;;;4894615;29;20043;-92
2023/07/31 12:11:51;;;;;;;33.85;31.85;;;33.10;99.90;;;;;;4889385;29;20033;-92
2023/07/31 12:23:45;;;;;;;35.42;33.33;;;33.70;99.90;;;;;;4914414;29;20036;-93
2023/07/31 12:38:38;;;;;;;34.83;32.63;;;32.80;99.90;;;;;;4964965;29;20052;-92
2023/07/31 12:41:18;;;;;;;34.53;32.33;;;32.90;99.90;;;;;;4937021;29;20039;-92
2023/07/31 12:43:46;;;;;;;35.47;33.20;;;32.80;99.90;;;;;;4949794;28;20054;-92
2023/07/31 12:46:13;;;;;;;34.80;32.63;;;33.10;99.90;;;;;;4951831;28;20053;-92
2023/07/31 12:48:40;;;;;;;34.67;32.60;;;33.10;99.90;;;;;;4949948;28;20110;-92
2023/07/31 12:51:07;;;;;;;35.05;32.75;;;33.30;99.90;;;;;;4950771;29;20043;-92
2023/07/31 12:53:33;;;;;;;34.75;32.65;;;33.20;99.90;;;;;;4950228;29;20377;-93
2023/07/31 12:56:01;;;;;;;34.28;32.08;;;33.20;99.90;;;;;;4950316;29;20031;-92
2023/07/31 12:58:27;;;;;;;34.25;32.13;;;33.30;99.90;;;;;;4953013;28;20027;-93
2023/07/31 13:06:48;;;;;;;34.38;32.20;;;32.90;99.90;;;;;;5155668;23;20059;-92
2023/07/31 13:09:17;;;;;;;32.88;30.88;;;32.80;99.90;;;;;;4942306;29;20024;-92
2023/07/31 13:12:09;;;;;;;34.53;32.20;;;32.50;99.90;;;;;;4932741;29;20122;-93
2023/07/31 13:14:36;;;;;;;33.95;31.58;;;32.20;99.90;;;;;;4957070;28;20107;-92
2023/07/31 13:20:08;;;;;;;33.15;31.00;;;32.00;99.90;;;;;;5738313;23;20043;-93
2023/07/31 15:14:30;;;;;;;35.50;33.20;;;31.90;99.90;;;;;;5040762;23;20081;-93
2023/07/31 15:46:46;;;;;;;35.22;33.00;;;31.40;99.90;;;;;;5182675;23;19927;-93
2023/07/31 15:49:13;;;;;;;35.13;32.95;;;31.20;99.90;;;;;;5087411;24;20066;-92
2023/07/31 15:51:57;;;;;;;;;;;;;;;;;;;;;
2023/07/31 15:55:17;;;;;;;34.88;32.67;;;31.40;99.90;;;;;;4934662;29;20043;-93
2023/07/31 15:58:56;;;;;;;;;;;;;;;;;;;;;
2023/07/31 16:01:42;;;;;;;35.58;33.28;;;31.30;99.90;;;;;;4952366;29;20032;-92
2023/07/31 16:04:29;;;;;;;35.28;33.03;;;31.40;99.90;;;;;;4930199;29;20043;-92
2023/07/31 16:07:37;;;;;;;35.10;32.97;;;31.30;99.90;;;;;;4869017;29;20042;-92
2023/07/31 16:10:08;;;;;;;35.28;32.92;;;31.30;99.90;;;;;;4847638;29;20532;-91
2023/07/31 16:12:38;;;;;;;36.13;33.97;;;31.20;99.90;;;;;;4835377;29;20037;-92
2023/07/31 16:15:04;;;;;;;35.00;32.95;;;31.30;99.90;;;;;;4834471;29;20065;-93
2023/07/31 16:17:31;;;;;;;35.53;33.22;;;31.20;99.90;;;;;;4822386;29;20500;-92
2023/07/31 16:19:58;;;;;;;34.25;32.08;;;31.10;99.90;;;;;;4830533;29;20125;-92
2023/07/31 16:22:25;;;;;;;35.17;32.88;;;31.00;99.90;;;;;;4834265;29;20042;-91
2023/07/31 16:24:51;;;;;;;34.88;32.67;;;30.80;99.90;;;;;;4833146;29;20444;-92
2023/07/31 16:27:19;;;;;;;34.47;32.20;;;30.70;99.90;;;;;;4833101;29;20166;-91
2023/07/31 16:29:48;;;;;;;34.55;32.25;;;30.60;99.90;;;;;;4851869;29;20059;-91
2023/07/31 16:32:15;;;;;;;34.50;32.35;;;30.60;99.90;;;;;;4850985;29;20041;-91
2023/07/31 16:34:41;;;;;;;35.08;32.58;;;30.60;99.90;;;;;;4836201;29;20042;-91
2023/07/31 16:37:07;;;;;;;34.40;32.20;;;30.50;99.90;;;;;;4819908;29;20046;-92
2023/07/31 16:39:34;;;;;;;35.55;33.35;;;30.50;99.90;;;;;;4817709;29;20170;-92
2023/07/31 16:42:03;;;;;;;35.28;33.15;;;30.50;99.90;;;;;;4836921;29;20043;-91
2023/07/31 16:44:29;;;;;;;34.92;32.72;;;30.60;99.90;;;;;;4903623;29;20116;-93
2023/07/31 16:46:56;;;;;;;34.83;32.63;;;30.70;99.90;;;;;;4897306;29;20036;-92
2023/07/31 16:49:22;;;;;;;36.30;33.28;;;30.90;99.90;;;;;;4931154;29;20040;-90
2023/07/31 16:51:49;;;;;;;34.60;32.50;;;30.90;99.90;;;;;;4926967;29;20028;-92
2023/07/31 16:54:18;;;;;;;35.50;33.30;;;30.90;99.90;;;;;;4931389;29;20044;-91
2023/07/31 16:56:48;;;;;;;34.90;32.70;;;31.00;99.90;;;;;;4933776;29;20143;-91
2023/07/31 16:59:19;;;;;;;35.00;32.80;;;31.10;99.90;;;;;;4940215;29;20131;-92
